sensor_id;sensor_type;location;lat;lon;timestamp;P1;durP1;ratioP1;P2;durP2;ratioP2
8978;SDS011;4524;51.364;5.448;2024-01-30T00:01:08;8.02;;;4.45;;
8978;SDS011;4524;51.364;5.448;2024-01-30T00:03:36;7.03;;;4.57;;
8978;SDS011;4524;51.364;5.448;2024-01-30T00:06:04;6.95;;;4.85;;
8978;SDS011;4524;51.364;5.448;2024-01-30T00:08:33;8.82;;;4.22;;
8978;SDS011;4524;51.364;5.448;2024-01-30T00:11:02;9.40;;;4.00;;
8978;SDS011;4524;51.364;5.448;2024-01-30T00:13:31;9.23;;;4.82;;
8978;SDS011;4524;51.364;5.448;2024-01-30T00:15:59;9.32;;;4.72;;
8978;SDS011;4524;51.364;5.448;2024-01-30T00:18:27;8.15;;;4.47;;
8978;SDS011;4524;51.364;5.448;2024-01-30T00:20:55;8.98;;;5.15;;
8978;SDS011;4524;51.364;5.448;2024-01-30T00:23:23;10.57;;;4.38;;
8978;SDS011;4524;51.364;5.448;2024-01-30T00:25:51;9.75;;;4.93;;
8978;SDS011;4524;51.364;5.448;2024-01-30T00:28:21;8.52;;;4.28;;
8978;SDS011;4524;51.364;5.448;2024-01-30T00:30:49;9.93;;;5.07;;
8978;SDS011;4524;51.364;5.448;2024-01-30T00:33:17;8.65;;;4.57;;
8978;SDS011;4524;51.364;5.448;2024-01-30T00:35:45;7.70;;;4.53;;
8978;SDS011;4524;51.364;5.448;2024-01-30T00:38:13;9.38;;;4.88;;
8978;SDS011;4524;51.364;5.448;2024-01-30T00:40:41;8.95;;;5.30;;
8978;SDS011;4524;51.364;5.448;2024-01-30T00:43:08;10.90;;;4.40;;
8978;SDS011;4524;51.364;5.448;2024-01-30T00:45:38;12.73;;;6.30;;
8978;SDS011;4524;51.364;5.448;2024-01-30T00:48:06;12.32;;;4.57;;
8978;SDS011;4524;51.364;5.448;2024-01-30T00:50:34;7.13;;;3.78;;
8978;SDS011;4524;51.364;5.448;2024-01-30T00:53:02;10.07;;;5.07;;
8978;SDS011;4524;51.364;5.448;2024-01-30T00:55:30;9.60;;;4.32;;
8978;SDS011;4524;51.364;5.448;2024-01-30T00:57:58;7.47;;;4.38;;
8978;SDS011;4524;51.364;5.448;2024-01-30T01:00:26;11.77;;;4.50;;
8978;SDS011;4524;51.364;5.448;2024-01-30T01:02:57;7.90;;;4.15;;
8978;SDS011;4524;51.364;5.448;2024-01-30T01:05:25;7.75;;;3.78;;
8978;SDS011;4524;51.364;5.448;2024-01-30T01:07:53;9.07;;;4.57;;
8978;SDS011;4524;51.364;5.448;2024-01-30T01:10:21;8.75;;;4.18;;
8978;SDS011;4524;51.364;5.448;2024-01-30T01:12:50;8.20;;;4.63;;
8978;SDS011;4524;51.364;5.448;2024-01-30T01:15:18;8.85;;;4.60;;
8978;SDS011;4524;51.364;5.448;2024-01-30T01:17:46;8.80;;;4.68;;
8978;SDS011;4524;51.364;5.448;2024-01-30T01:20:15;9.57;;;4.15;;
8978;SDS011;4524;51.364;5.448;2024-01-30T01:22:43;10.52;;;4.47;;
8978;SDS011;4524;51.364;5.448;2024-01-30T01:25:11;7.55;;;4.15;;
8978;SDS011;4524;51.364;5.448;2024-01-30T01:27:39;7.70;;;4.18;;
8978;SDS011;4524;51.364;5.448;2024-01-30T01:30:09;9.63;;;5.10;;
8978;SDS011;4524;51.364;5.448;2024-01-30T01:32:40;7.50;;;4.70;;
8978;SDS011;4524;51.364;5.448;2024-01-30T01:35:16;6.70;;;4.20;;
8978;SDS011;4524;51.364;5.448;2024-01-30T01:37:44;6.45;;;4.05;;
8978;SDS011;4524;51.364;5.448;2024-01-30T01:40:12;8.10;;;4.57;;
8978;SDS011;4524;51.364;5.448;2024-01-30T01:42:41;7.78;;;4.50;;
8978;SDS011;4524;51.364;5.448;2024-01-30T01:45:09;8.45;;;4.15;;
8978;SDS011;4524;51.364;5.448;2024-01-30T01:47:37;6.95;;;3.80;;
8978;SDS011;4524;51.364;5.448;2024-01-30T01:50:05;8.40;;;4.05;;
8978;SDS011;4524;51.364;5.448;2024-01-30T01:52:35;10.75;;;5.15;;
8978;SDS011;4524;51.364;5.448;2024-01-30T01:55:04;7.43;;;4.55;;
8978;SDS011;4524;51.364;5.448;2024-01-30T01:57:37;6.57;;;4.00;;
8978;SDS011;4524;51.364;5.448;2024-01-30T02:00:05;12.95;;;5.55;;
8978;SDS011;4524;51.364;5.448;2024-01-30T02:02:36;7.18;;;4.07;;
8978;SDS011;4524;51.364;5.448;2024-01-30T02:05:04;9.55;;;4.05;;
8978;SDS011;4524;51.364;5.448;2024-01-30T02:07:34;8.15;;;4.22;;
8978;SDS011;4524;51.364;5.448;2024-01-30T02:10:02;7.03;;;4.00;;
8978;SDS011;4524;51.364;5.448;2024-01-30T02:12:31;9.48;;;4.40;;
8978;SDS011;4524;51.364;5.448;2024-01-30T02:14:59;8.73;;;4.68;;
8978;SDS011;4524;51.364;5.448;2024-01-30T02:17:27;9.05;;;4.72;;
8978;SDS011;4524;51.364;5.448;2024-01-30T02:19:55;6.50;;;4.47;;
8978;SDS011;4524;51.364;5.448;2024-01-30T02:22:26;11.25;;;4.40;;
8978;SDS011;4524;51.364;5.448;2024-01-30T02:24:54;6.78;;;4.28;;
8978;SDS011;4524;51.364;5.448;2024-01-30T02:27:22;10.65;;;4.22;;
8978;SDS011;4524;51.364;5.448;2024-01-30T02:29:50;9.43;;;4.13;;
8978;SDS011;4524;51.364;5.448;2024-01-30T02:32:18;7.47;;;5.15;;
8978;SDS011;4524;51.364;5.448;2024-01-30T02:34:46;8.70;;;4.28;;
8978;SDS011;4524;51.364;5.448;2024-01-30T02:37:14;11.70;;;4.65;;
8978;SDS011;4524;51.364;5.448;2024-01-30T02:39:43;6.07;;;3.67;;
8978;SDS011;4524;51.364;5.448;2024-01-30T02:42:11;10.35;;;4.47;;
8978;SDS011;4524;51.364;5.448;2024-01-30T02:44:39;8.98;;;4.20;;
8978;SDS011;4524;51.364;5.448;2024-01-30T02:47:07;8.63;;;4.68;;
8978;SDS011;4524;51.364;5.448;2024-01-30T02:49:35;6.72;;;4.32;;
8978;SDS011;4524;51.364;5.448;2024-01-30T02:52:03;8.57;;;4.75;;
8978;SDS011;4524;51.364;5.448;2024-01-30T02:54:32;8.45;;;5.07;;
8978;SDS011;4524;51.364;5.448;2024-01-30T02:57:01;7.57;;;3.80;;
8978;SDS011;4524;51.364;5.448;2024-01-30T02:59:29;8.27;;;4.20;;
8978;SDS011;4524;51.364;5.448;2024-01-30T03:01:59;8.13;;;4.10;;
8978;SDS011;4524;51.364;5.448;2024-01-30T03:04:27;8.68;;;4.30;;
8978;SDS011;4524;51.364;5.448;2024-01-30T03:06:56;7.20;;;4.03;;
8978;SDS011;4524;51.364;5.448;2024-01-30T03:09:24;7.43;;;3.70;;
8978;SDS011;4524;51.364;5.448;2024-01-30T03:11:52;8.55;;;3.88;;
8978;SDS011;4524;51.364;5.448;2024-01-30T03:14:22;8.27;;;3.72;;
8978;SDS011;4524;51.364;5.448;2024-01-30T03:16:50;9.93;;;4.13;;
8978;SDS011;4524;51.364;5.448;2024-01-30T03:19:18;7.70;;;4.53;;
8978;SDS011;4524;51.364;5.448;2024-01-30T03:21:46;5.38;;;3.65;;
8978;SDS011;4524;51.364;5.448;2024-01-30T03:24:14;6.80;;;4.20;;
8978;SDS011;4524;51.364;5.448;2024-01-30T03:26:42;8.65;;;4.43;;
8978;SDS011;4524;51.364;5.448;2024-01-30T03:29:11;10.88;;;4.32;;
8978;SDS011;4524;51.364;5.448;2024-01-30T03:31:40;8.98;;;3.92;;
8978;SDS011;4524;51.364;5.448;2024-01-30T03:34:08;8.35;;;4.28;;
8978;SDS011;4524;51.364;5.448;2024-01-30T03:36:36;9.88;;;4.30;;
8978;SDS011;4524;51.364;5.448;2024-01-30T03:39:04;8.75;;;4.10;;
8978;SDS011;4524;51.364;5.448;2024-01-30T03:41:32;6.13;;;3.42;;
8978;SDS011;4524;51.364;5.448;2024-01-30T03:44:00;6.53;;;4.35;;
8978;SDS011;4524;51.364;5.448;2024-01-30T03:46:28;8.90;;;4.70;;
8978;SDS011;4524;51.364;5.448;2024-01-30T03:48:58;7.40;;;4.30;;
8978;SDS011;4524;51.364;5.448;2024-01-30T03:51:26;8.63;;;3.67;;
8978;SDS011;4524;51.364;5.448;2024-01-30T03:53:54;7.60;;;3.80;;
8978;SDS011;4524;51.364;5.448;2024-01-30T03:56:22;8.40;;;3.70;;
8978;SDS011;4524;51.364;5.448;2024-01-30T03:58:52;10.27;;;3.20;;
8978;SDS011;4524;51.364;5.448;2024-01-30T04:01:20;8.20;;;3.83;;
8978;SDS011;4524;51.364;5.448;2024-01-30T04:03:48;5.75;;;3.53;;
8978;SDS011;4524;51.364;5.448;2024-01-30T04:06:17;6.13;;;3.05;;
8978;SDS011;4524;51.364;5.448;2024-01-30T04:08:45;10.35;;;3.85;;
8978;SDS011;4524;51.364;5.448;2024-01-30T04:11:13;7.90;;;4.00;;
8978;SDS011;4524;51.364;5.448;2024-01-30T04:13:41;6.70;;;3.30;;
8978;SDS011;4524;51.364;5.448;2024-01-30T04:16:18;7.57;;;3.60;;
8978;SDS011;4524;51.364;5.448;2024-01-30T04:18:47;8.38;;;3.45;;
8978;SDS011;4524;51.364;5.448;2024-01-30T04:21:15;5.80;;;3.55;;
8978;SDS011;4524;51.364;5.448;2024-01-30T04:23:44;7.97;;;3.75;;
8978;SDS011;4524;51.364;5.448;2024-01-30T04:26:13;4.63;;;2.85;;
8978;SDS011;4524;51.364;5.448;2024-01-30T04:28:41;7.22;;;3.28;;
8978;SDS011;4524;51.364;5.448;2024-01-30T04:31:09;7.40;;;3.30;;
8978;SDS011;4524;51.364;5.448;2024-01-30T04:33:37;6.75;;;3.08;;
8978;SDS011;4524;51.364;5.448;2024-01-30T04:36:07;5.63;;;3.17;;
8978;SDS011;4524;51.364;5.448;2024-01-30T04:38:37;6.57;;;3.47;;
8978;SDS011;4524;51.364;5.448;2024-01-30T04:41:07;8.23;;;3.70;;
8978;SDS011;4524;51.364;5.448;2024-01-30T04:43:35;8.07;;;3.35;;
8978;SDS011;4524;51.364;5.448;2024-01-30T04:46:03;5.72;;;3.05;;
8978;SDS011;4524;51.364;5.448;2024-01-30T04:48:31;8.40;;;3.28;;
8978;SDS011;4524;51.364;5.448;2024-01-30T04:50:59;5.80;;;3.58;;
8978;SDS011;4524;51.364;5.448;2024-01-30T04:53:29;6.10;;;3.00;;
8978;SDS011;4524;51.364;5.448;2024-01-30T04:55:58;4.45;;;3.00;;
8978;SDS011;4524;51.364;5.448;2024-01-30T04:58:27;5.85;;;2.72;;
8978;SDS011;4524;51.364;5.448;2024-01-30T05:00:55;8.35;;;3.53;;
8978;SDS011;4524;51.364;5.448;2024-01-30T05:05:52;5.20;;;2.42;;
8978;SDS011;4524;51.364;5.448;2024-01-30T05:08:20;9.27;;;3.20;;
8978;SDS011;4524;51.364;5.448;2024-01-30T05:10:48;6.18;;;3.35;;
8978;SDS011;4524;51.364;5.448;2024-01-30T05:13:16;9.88;;;3.25;;
8978;SDS011;4524;51.364;5.448;2024-01-30T05:15:45;7.07;;;3.60;;
8978;SDS011;4524;51.364;5.448;2024-01-30T05:18:13;7.68;;;3.65;;
8978;SDS011;4524;51.364;5.448;2024-01-30T05:20:42;6.95;;;3.38;;
8978;SDS011;4524;51.364;5.448;2024-01-30T05:23:10;6.40;;;3.67;;
8978;SDS011;4524;51.364;5.448;2024-01-30T05:25:38;5.82;;;3.10;;
8978;SDS011;4524;51.364;5.448;2024-01-30T05:28:06;6.18;;;3.58;;
8978;SDS011;4524;51.364;5.448;2024-01-30T05:30:34;5.47;;;3.08;;
8978;SDS011;4524;51.364;5.448;2024-01-30T05:33:03;8.02;;;3.30;;
8978;SDS011;4524;51.364;5.448;2024-01-30T05:35:31;7.30;;;4.10;;
8978;SDS011;4524;51.364;5.448;2024-01-30T05:37:59;6.30;;;3.42;;
8978;SDS011;4524;51.364;5.448;2024-01-30T05:40:27;6.50;;;3.45;;
8978;SDS011;4524;51.364;5.448;2024-01-30T05:42:56;13.60;;;4.30;;
8978;SDS011;4524;51.364;5.448;2024-01-30T05:45:24;7.00;;;3.20;;
8978;SDS011;4524;51.364;5.448;2024-01-30T05:47:53;6.60;;;2.80;;
8978;SDS011;4524;51.364;5.448;2024-01-30T05:50:22;9.30;;;3.50;;
8978;SDS011;4524;51.364;5.448;2024-01-30T05:52:51;5.47;;;2.90;;
8978;SDS011;4524;51.364;5.448;2024-01-30T05:55:19;6.82;;;3.55;;
8978;SDS011;4524;51.364;5.448;2024-01-30T05:57:47;6.10;;;2.80;;
8978;SDS011;4524;51.364;5.448;2024-01-30T06:00:16;7.85;;;3.45;;
8978;SDS011;4524;51.364;5.448;2024-01-30T06:02:44;6.00;;;3.40;;
8978;SDS011;4524;51.364;5.448;2024-01-30T06:05:12;7.03;;;2.78;;
8978;SDS011;4524;51.364;5.448;2024-01-30T06:07:42;5.75;;;3.00;;
8978;SDS011;4524;51.364;5.448;2024-01-30T06:10:10;5.57;;;3.05;;
8978;SDS011;4524;51.364;5.448;2024-01-30T06:12:39;7.68;;;3.58;;
8978;SDS011;4524;51.364;5.448;2024-01-30T06:15:07;7.57;;;3.40;;
8978;SDS011;4524;51.364;5.448;2024-01-30T06:17:36;6.78;;;3.60;;
8978;SDS011;4524;51.364;5.448;2024-01-30T06:20:05;7.05;;;2.83;;
8978;SDS011;4524;51.364;5.448;2024-01-30T06:22:34;4.28;;;2.55;;
8978;SDS011;4524;51.364;5.448;2024-01-30T06:25:04;5.22;;;3.08;;
8978;SDS011;4524;51.364;5.448;2024-01-30T06:27:32;9.65;;;3.15;;
8978;SDS011;4524;51.364;5.448;2024-01-30T06:30:00;6.55;;;2.97;;
8978;SDS011;4524;51.364;5.448;2024-01-30T06:32:29;6.75;;;3.55;;
8978;SDS011;4524;51.364;5.448;2024-01-30T06:35:00;5.90;;;3.78;;
8978;SDS011;4524;51.364;5.448;2024-01-30T06:37:29;7.50;;;3.53;;
8978;SDS011;4524;51.364;5.448;2024-01-30T06:39:57;5.07;;;2.97;;
8978;SDS011;4524;51.364;5.448;2024-01-30T06:42:26;5.90;;;2.85;;
8978;SDS011;4524;51.364;5.448;2024-01-30T06:44:54;7.90;;;3.70;;
8978;SDS011;4524;51.364;5.448;2024-01-30T06:47:22;8.02;;;4.38;;
8978;SDS011;4524;51.364;5.448;2024-01-30T06:49:51;7.78;;;3.70;;
8978;SDS011;4524;51.364;5.448;2024-01-30T06:52:19;6.78;;;3.08;;
8978;SDS011;4524;51.364;5.448;2024-01-30T06:54:47;5.93;;;3.25;;
8978;SDS011;4524;51.364;5.448;2024-01-30T06:57:15;7.25;;;3.13;;
8978;SDS011;4524;51.364;5.448;2024-01-30T06:59:44;6.47;;;3.17;;
8978;SDS011;4524;51.364;5.448;2024-01-30T07:02:13;15.40;;;4.00;;
8978;SDS011;4524;51.364;5.448;2024-01-30T07:04:41;5.53;;;3.38;;
8978;SDS011;4524;51.364;5.448;2024-01-30T07:07:13;13.32;;;3.78;;
8978;SDS011;4524;51.364;5.448;2024-01-30T07:09:41;6.38;;;3.28;;
8978;SDS011;4524;51.364;5.448;2024-01-30T07:12:09;8.82;;;3.78;;
8978;SDS011;4524;51.364;5.448;2024-01-30T07:14:38;6.65;;;3.38;;
8978;SDS011;4524;51.364;5.448;2024-01-30T07:17:07;7.72;;;3.17;;
8978;SDS011;4524;51.364;5.448;2024-01-30T07:19:35;7.55;;;3.40;;
8978;SDS011;4524;51.364;5.448;2024-01-30T07:22:03;6.95;;;3.05;;
8978;SDS011;4524;51.364;5.448;2024-01-30T07:24:31;8.13;;;3.45;;
8978;SDS011;4524;51.364;5.448;2024-01-30T07:27:00;7.00;;;3.42;;
8978;SDS011;4524;51.364;5.448;2024-01-30T07:29:28;4.40;;;2.60;;
8978;SDS011;4524;51.364;5.448;2024-01-30T07:31:56;5.35;;;3.05;;
8978;SDS011;4524;51.364;5.448;2024-01-30T07:34:25;7.30;;;3.60;;
8978;SDS011;4524;51.364;5.448;2024-01-30T07:36:54;6.97;;;3.28;;
8978;SDS011;4524;51.364;5.448;2024-01-30T07:39:22;6.75;;;3.30;;
8978;SDS011;4524;51.364;5.448;2024-01-30T07:41:50;7.30;;;4.32;;
8978;SDS011;4524;51.364;5.448;2024-01-30T07:44:18;6.55;;;3.55;;
8978;SDS011;4524;51.364;5.448;2024-01-30T07:46:46;10.30;;;4.47;;
8978;SDS011;4524;51.364;5.448;2024-01-30T07:49:14;6.18;;;3.75;;
8978;SDS011;4524;51.364;5.448;2024-01-30T07:51:43;5.75;;;3.50;;
8978;SDS011;4524;51.364;5.448;2024-01-30T07:54:12;7.47;;;3.78;;
8978;SDS011;4524;51.364;5.448;2024-01-30T07:56:41;4.70;;;2.85;;
8978;SDS011;4524;51.364;5.448;2024-01-30T07:59:09;9.20;;;4.43;;
8978;SDS011;4524;51.364;5.448;2024-01-30T08:01:37;6.35;;;3.72;;
8978;SDS011;4524;51.364;5.448;2024-01-30T08:04:06;5.25;;;3.22;;
8978;SDS011;4524;51.364;5.448;2024-01-30T08:06:34;5.85;;;3.83;;
8978;SDS011;4524;51.364;5.448;2024-01-30T08:09:03;6.57;;;3.50;;
8978;SDS011;4524;51.364;5.448;2024-01-30T08:11:32;5.82;;;3.63;;
8978;SDS011;4524;51.364;5.448;2024-01-30T08:14:00;6.82;;;3.58;;
8978;SDS011;4524;51.364;5.448;2024-01-30T08:16:31;6.57;;;3.70;;
8978;SDS011;4524;51.364;5.448;2024-01-30T08:18:59;8.10;;;3.65;;
8978;SDS011;4524;51.364;5.448;2024-01-30T08:21:27;6.53;;;3.78;;
8978;SDS011;4524;51.364;5.448;2024-01-30T08:23:55;7.57;;;4.70;;
8978;SDS011;4524;51.364;5.448;2024-01-30T08:26:25;6.32;;;3.95;;
8978;SDS011;4524;51.364;5.448;2024-01-30T08:28:53;8.18;;;4.93;;
8978;SDS011;4524;51.364;5.448;2024-01-30T08:31:21;9.55;;;4.30;;
8978;SDS011;4524;51.364;5.448;2024-01-30T08:33:49;12.75;;;4.68;;
8978;SDS011;4524;51.364;5.448;2024-01-30T08:36:18;10.35;;;4.70;;
8978;SDS011;4524;51.364;5.448;2024-01-30T08:38:46;9.13;;;4.05;;
8978;SDS011;4524;51.364;5.448;2024-01-30T08:41:14;8.70;;;4.78;;
8978;SDS011;4524;51.364;5.448;2024-01-30T08:43:44;8.60;;;4.70;;
8978;SDS011;4524;51.364;5.448;2024-01-30T08:46:12;7.68;;;3.70;;
8978;SDS011;4524;51.364;5.448;2024-01-30T08:48:44;8.00;;;4.20;;
8978;SDS011;4524;51.364;5.448;2024-01-30T08:51:14;10.18;;;4.03;;
8978;SDS011;4524;51.364;5.448;2024-01-30T08:53:42;8.73;;;4.22;;
8978;SDS011;4524;51.364;5.448;2024-01-30T08:56:10;7.55;;;4.40;;
8978;SDS011;4524;51.364;5.448;2024-01-30T08:58:38;10.70;;;4.70;;
8978;SDS011;4524;51.364;5.448;2024-01-30T09:01:07;7.18;;;4.25;;
8978;SDS011;4524;51.364;5.448;2024-01-30T09:03:35;9.40;;;4.22;;
8978;SDS011;4524;51.364;5.448;2024-01-30T09:06:08;7.25;;;4.38;;
8978;SDS011;4524;51.364;5.448;2024-01-30T09:08:37;6.38;;;3.88;;
8978;SDS011;4524;51.364;5.448;2024-01-30T09:11:08;9.70;;;4.82;;
8978;SDS011;4524;51.364;5.448;2024-01-30T09:13:35;8.45;;;4.10;;
8978;SDS011;4524;51.364;5.448;2024-01-30T09:16:03;10.90;;;3.83;;
8978;SDS011;4524;51.364;5.448;2024-01-30T09:21:01;7.38;;;4.50;;
8978;SDS011;4524;51.364;5.448;2024-01-30T09:23:29;7.18;;;3.85;;
8978;SDS011;4524;51.364;5.448;2024-01-30T09:25:58;9.32;;;4.30;;
8978;SDS011;4524;51.364;5.448;2024-01-30T09:28:26;16.88;;;5.38;;
8978;SDS011;4524;51.364;5.448;2024-01-30T09:30:54;9.68;;;3.97;;
8978;SDS011;4524;51.364;5.448;2024-01-30T09:33:22;7.78;;;4.40;;
8978;SDS011;4524;51.364;5.448;2024-01-30T09:35:51;12.23;;;5.03;;
8978;SDS011;4524;51.364;5.448;2024-01-30T09:38:19;12.88;;;5.03;;
8978;SDS011;4524;51.364;5.448;2024-01-30T09:40:49;12.00;;;4.93;;
8978;SDS011;4524;51.364;5.448;2024-01-30T09:43:22;11.48;;;3.92;;
8978;SDS011;4524;51.364;5.448;2024-01-30T09:45:53;8.60;;;4.63;;
8978;SDS011;4524;51.364;5.448;2024-01-30T09:48:23;9.38;;;3.63;;
8978;SDS011;4524;51.364;5.448;2024-01-30T09:50:54;7.40;;;4.90;;
8978;SDS011;4524;51.364;5.448;2024-01-30T09:53:23;11.23;;;4.93;;
8978;SDS011;4524;51.364;5.448;2024-01-30T09:55:52;8.65;;;4.22;;
8978;SDS011;4524;51.364;5.448;2024-01-30T09:58:20;15.63;;;5.53;;
8978;SDS011;4524;51.364;5.448;2024-01-30T10:00:49;11.57;;;4.70;;
8978;SDS011;4524;51.364;5.448;2024-01-30T10:03:17;8.70;;;4.55;;
8978;SDS011;4524;51.364;5.448;2024-01-30T10:05:46;13.20;;;4.35;;
8978;SDS011;4524;51.364;5.448;2024-01-30T10:08:20;8.23;;;4.85;;
8978;SDS011;4524;51.364;5.448;2024-01-30T10:10:49;8.15;;;3.95;;
8978;SDS011;4524;51.364;5.448;2024-01-30T10:13:17;7.45;;;5.15;;
8978;SDS011;4524;51.364;5.448;2024-01-30T10:15:47;8.68;;;4.20;;
8978;SDS011;4524;51.364;5.448;2024-01-30T10:18:15;8.73;;;4.50;;
8978;SDS011;4524;51.364;5.448;2024-01-30T10:20:43;12.70;;;4.68;;
8978;SDS011;4524;51.364;5.448;2024-01-30T10:23:11;11.32;;;4.93;;
8978;SDS011;4524;51.364;5.448;2024-01-30T10:25:41;15.75;;;5.35;;
8978;SDS011;4524;51.364;5.448;2024-01-30T10:28:09;8.55;;;4.57;;
8978;SDS011;4524;51.364;5.448;2024-01-30T10:30:37;10.88;;;5.05;;
8978;SDS011;4524;51.364;5.448;2024-01-30T10:33:05;10.40;;;4.70;;
8978;SDS011;4524;51.364;5.448;2024-01-30T10:35:33;7.95;;;4.53;;
8978;SDS011;4524;51.364;5.448;2024-01-30T10:38:01;7.57;;;5.30;;
8978;SDS011;4524;51.364;5.448;2024-01-30T10:40:29;10.38;;;4.80;;
8978;SDS011;4524;51.364;5.448;2024-01-30T10:43:01;12.23;;;5.13;;
8978;SDS011;4524;51.364;5.448;2024-01-30T10:45:31;10.93;;;4.70;;
8978;SDS011;4524;51.364;5.448;2024-01-30T10:47:59;8.55;;;4.80;;
8978;SDS011;4524;51.364;5.448;2024-01-30T10:50:30;8.77;;;4.63;;
8978;SDS011;4524;51.364;5.448;2024-01-30T10:53:02;12.40;;;4.97;;
8978;SDS011;4524;51.364;5.448;2024-01-30T10:55:32;10.63;;;4.95;;
8978;SDS011;4524;51.364;5.448;2024-01-30T10:58:03;7.93;;;4.53;;
8978;SDS011;4524;51.364;5.448;2024-01-30T11:00:32;13.18;;;5.53;;
8978;SDS011;4524;51.364;5.448;2024-01-30T11:03:01;9.23;;;4.38;;
8978;SDS011;4524;51.364;5.448;2024-01-30T11:05:30;13.82;;;5.65;;
8978;SDS011;4524;51.364;5.448;2024-01-30T11:08:05;7.70;;;4.40;;
8978;SDS011;4524;51.364;5.448;2024-01-30T11:10:44;11.27;;;4.78;;
8978;SDS011;4524;51.364;5.448;2024-01-30T11:13:14;10.32;;;3.97;;
8978;SDS011;4524;51.364;5.448;2024-01-30T11:15:43;12.02;;;4.13;;
8978;SDS011;4524;51.364;5.448;2024-01-30T11:18:11;11.93;;;4.35;;
8978;SDS011;4524;51.364;5.448;2024-01-30T11:20:39;12.77;;;5.40;;
8978;SDS011;4524;51.364;5.448;2024-01-30T11:23:15;11.73;;;4.82;;
8978;SDS011;4524;51.364;5.448;2024-01-30T11:25:43;11.48;;;5.47;;
8978;SDS011;4524;51.364;5.448;2024-01-30T11:28:16;9.57;;;5.40;;
8978;SDS011;4524;51.364;5.448;2024-01-30T11:30:44;16.02;;;4.40;;
8978;SDS011;4524;51.364;5.448;2024-01-30T11:33:14;11.07;;;4.72;;
8978;SDS011;4524;51.364;5.448;2024-01-30T11:35:43;8.63;;;4.28;;
8978;SDS011;4524;51.364;5.448;2024-01-30T11:38:13;13.57;;;4.75;;
8978;SDS011;4524;51.364;5.448;2024-01-30T11:40:42;11.00;;;4.40;;
8978;SDS011;4524;51.364;5.448;2024-01-30T11:43:11;8.25;;;3.72;;
8978;SDS011;4524;51.364;5.448;2024-01-30T11:45:41;6.07;;;3.97;;
8978;SDS011;4524;51.364;5.448;2024-01-30T11:48:11;15.18;;;4.28;;
8978;SDS011;4524;51.364;5.448;2024-01-30T11:50:40;10.27;;;3.20;;
8978;SDS011;4524;51.364;5.448;2024-01-30T11:53:08;10.10;;;3.60;;
8978;SDS011;4524;51.364;5.448;2024-01-30T11:55:37;6.30;;;3.85;;
8978;SDS011;4524;51.364;5.448;2024-01-30T11:58:05;6.72;;;3.15;;
8978;SDS011;4524;51.364;5.448;2024-01-30T12:00:33;4.53;;;2.83;;
8978;SDS011;4524;51.364;5.448;2024-01-30T12:03:03;5.45;;;3.00;;
8978;SDS011;4524;51.364;5.448;2024-01-30T12:05:33;14.80;;;3.30;;
8978;SDS011;4524;51.364;5.448;2024-01-30T12:08:03;12.25;;;3.15;;
8978;SDS011;4524;51.364;5.448;2024-01-30T12:10:31;7.07;;;2.63;;
8978;SDS011;4524;51.364;5.448;2024-01-30T12:13:00;8.20;;;2.55;;
8978;SDS011;4524;51.364;5.448;2024-01-30T12:15:29;6.93;;;2.97;;
8978;SDS011;4524;51.364;5.448;2024-01-30T12:18:05;6.68;;;3.08;;
8978;SDS011;4524;51.364;5.448;2024-01-30T12:20:34;10.13;;;3.20;;
8978;SDS011;4524;51.364;5.448;2024-01-30T12:25:31;10.45;;;2.45;;
8978;SDS011;4524;51.364;5.448;2024-01-30T12:27:59;6.55;;;2.42;;
8978;SDS011;4524;51.364;5.448;2024-01-30T12:30:27;7.72;;;2.72;;
8978;SDS011;4524;51.364;5.448;2024-01-30T12:32:56;5.50;;;2.40;;
8978;SDS011;4524;51.364;5.448;2024-01-30T12:35:25;6.55;;;2.45;;
8978;SDS011;4524;51.364;5.448;2024-01-30T12:37:57;3.67;;;1.92;;
8978;SDS011;4524;51.364;5.448;2024-01-30T12:40:25;6.43;;;1.88;;
8978;SDS011;4524;51.364;5.448;2024-01-30T12:42:53;5.78;;;1.90;;
8978;SDS011;4524;51.364;5.448;2024-01-30T12:45:21;5.15;;;1.73;;
8978;SDS011;4524;51.364;5.448;2024-01-30T12:47:49;3.47;;;1.33;;
8978;SDS011;4524;51.364;5.448;2024-01-30T12:52:47;2.50;;;1.15;;
8978;SDS011;4524;51.364;5.448;2024-01-30T12:55:16;4.07;;;1.02;;
8978;SDS011;4524;51.364;5.448;2024-01-30T13:00:13;2.30;;;0.82;;
8978;SDS011;4524;51.364;5.448;2024-01-30T13:02:43;8.80;;;1.35;;
8978;SDS011;4524;51.364;5.448;2024-01-30T13:05:11;1.63;;;0.80;;
8978;SDS011;4524;51.364;5.448;2024-01-30T13:07:40;0.60;;;0.45;;
8978;SDS011;4524;51.364;5.448;2024-01-30T13:10:09;2.72;;;0.73;;
8978;SDS011;4524;51.364;5.448;2024-01-30T13:12:38;3.45;;;0.47;;
8978;SDS011;4524;51.364;5.448;2024-01-30T13:15:06;4.82;;;0.80;;
8978;SDS011;4524;51.364;5.448;2024-01-30T13:17:35;1.98;;;0.60;;
8978;SDS011;4524;51.364;5.448;2024-01-30T13:20:03;1.70;;;0.60;;
8978;SDS011;4524;51.364;5.448;2024-01-30T13:22:37;2.47;;;0.60;;
8978;SDS011;4524;51.364;5.448;2024-01-30T13:27:36;1.35;;;0.65;;
8978;SDS011;4524;51.364;5.448;2024-01-30T13:30:06;1.45;;;0.60;;
8978;SDS011;4524;51.364;5.448;2024-01-30T13:32:35;4.07;;;0.80;;
8978;SDS011;4524;51.364;5.448;2024-01-30T13:35:04;1.48;;;0.55;;
8978;SDS011;4524;51.364;5.448;2024-01-30T13:37:33;1.08;;;0.60;;
8978;SDS011;4524;51.364;5.448;2024-01-30T13:42:36;4.32;;;0.90;;
8978;SDS011;4524;51.364;5.448;2024-01-30T13:45:04;0.68;;;0.40;;
8978;SDS011;4524;51.364;5.448;2024-01-30T13:47:33;4.25;;;0.88;;
8978;SDS011;4524;51.364;5.448;2024-01-30T13:50:01;1.55;;;0.70;;
8978;SDS011;4524;51.364;5.448;2024-01-30T13:52:29;2.72;;;0.60;;
8978;SDS011;4524;51.364;5.448;2024-01-30T13:55:04;3.47;;;0.68;;
8978;SDS011;4524;51.364;5.448;2024-01-30T13:57:32;1.83;;;0.50;;
8978;SDS011;4524;51.364;5.448;2024-01-30T14:00:03;3.63;;;1.05;;
8978;SDS011;4524;51.364;5.448;2024-01-30T14:02:38;1.52;;;0.60;;
8978;SDS011;4524;51.364;5.448;2024-01-30T14:05:06;2.55;;;0.88;;
8978;SDS011;4524;51.364;5.448;2024-01-30T14:07:35;4.35;;;1.27;;
8978;SDS011;4524;51.364;5.448;2024-01-30T14:10:06;4.45;;;0.65;;
8978;SDS011;4524;51.364;5.448;2024-01-30T14:12:39;2.08;;;0.80;;
8978;SDS011;4524;51.364;5.448;2024-01-30T14:15:08;1.38;;;0.70;;
8978;SDS011;4524;51.364;5.448;2024-01-30T14:17:52;4.05;;;1.17;;
8978;SDS011;4524;51.364;5.448;2024-01-30T14:20:21;3.63;;;0.85;;
8978;SDS011;4524;51.364;5.448;2024-01-30T14:22:49;2.35;;;0.73;;
8978;SDS011;4524;51.364;5.448;2024-01-30T14:25:18;2.40;;;0.80;;
8978;SDS011;4524;51.364;5.448;2024-01-30T14:27:46;3.03;;;1.10;;
8978;SDS011;4524;51.364;5.448;2024-01-30T14:30:16;1.30;;;0.80;;
8978;SDS011;4524;51.364;5.448;2024-01-30T14:32:44;0.88;;;0.60;;
8978;SDS011;4524;51.364;5.448;2024-01-30T14:35:13;4.07;;;0.98;;
8978;SDS011;4524;51.364;5.448;2024-01-30T14:37:42;2.45;;;0.88;;
8978;SDS011;4524;51.364;5.448;2024-01-30T14:40:10;2.63;;;0.82;;
8978;SDS011;4524;51.364;5.448;2024-01-30T14:42:38;2.38;;;0.68;;
8978;SDS011;4524;51.364;5.448;2024-01-30T14:45:07;1.40;;;0.88;;
8978;SDS011;4524;51.364;5.448;2024-01-30T14:47:37;2.38;;;0.93;;
8978;SDS011;4524;51.364;5.448;2024-01-30T14:50:05;4.93;;;1.40;;
8978;SDS011;4524;51.364;5.448;2024-01-30T14:52:35;2.95;;;0.82;;
8978;SDS011;4524;51.364;5.448;2024-01-30T14:55:04;5.00;;;0.88;;
8978;SDS011;4524;51.364;5.448;2024-01-30T15:00:02;3.67;;;0.88;;
8978;SDS011;4524;51.364;5.448;2024-01-30T15:02:30;1.95;;;1.15;;
8978;SDS011;4524;51.364;5.448;2024-01-30T15:05:00;6.32;;;1.27;;
8978;SDS011;4524;51.364;5.448;2024-01-30T15:07:29;6.03;;;1.58;;
8978;SDS011;4524;51.364;5.448;2024-01-30T15:10:06;4.05;;;1.33;;
8978;SDS011;4524;51.364;5.448;2024-01-30T15:12:35;4.80;;;1.73;;
8978;SDS011;4524;51.364;5.448;2024-01-30T15:15:04;6.45;;;1.48;;
8978;SDS011;4524;51.364;5.448;2024-01-30T15:17:35;4.82;;;1.60;;
8978;SDS011;4524;51.364;5.448;2024-01-30T15:20:05;8.93;;;1.50;;
8978;SDS011;4524;51.364;5.448;2024-01-30T15:22:33;2.10;;;1.25;;
8978;SDS011;4524;51.364;5.448;2024-01-30T15:25:02;3.08;;;1.55;;
8978;SDS011;4524;51.364;5.448;2024-01-30T15:27:30;2.28;;;1.00;;
8978;SDS011;4524;51.364;5.448;2024-01-30T15:29:58;6.55;;;1.50;;
8978;SDS011;4524;51.364;5.448;2024-01-30T15:32:26;4.18;;;2.03;;
8978;SDS011;4524;51.364;5.448;2024-01-30T15:34:54;6.10;;;2.95;;
8978;SDS011;4524;51.364;5.448;2024-01-30T15:37:24;9.88;;;3.17;;
8978;SDS011;4524;51.364;5.448;2024-01-30T15:39:53;6.18;;;3.63;;
8978;SDS011;4524;51.364;5.448;2024-01-30T15:42:21;7.22;;;2.17;;